createdAt,value
2022-10-11T00:02:14.924Z,102291.19
2022-10-11T00:04:42.931Z,102294.78
2022-10-11T00:07:11.116Z,102295.53
2022-10-11T00:13:45.346Z,102299.97
2022-10-11T00:20:46.190Z,102306.31
2022-10-11T00:23:14.862Z,102300.47
2022-10-11T00:25:42.871Z,102308.38
2022-10-11T00:28:10.885Z,102304.94
2022-10-11T00:30:38.912Z,102309.19
2022-10-11T00:33:06.856Z,102310.91
2022-10-11T00:35:41.560Z,102303.78
2022-10-11T00:38:11.413Z,102308.22
2022-10-11T00:40:39.613Z,102310.16
2022-10-11T00:43:16.226Z,102311.03
2022-10-11T00:46:03.122Z,102314.72
2022-10-11T00:48:37.704Z,102313.88
2022-10-11T00:51:13.210Z,102313.69
2022-10-11T00:53:43.369Z,102311.13
2022-10-11T00:56:16.486Z,102319.00
2022-10-11T00:58:44.983Z,102322.66
2022-10-11T01:01:12.963Z,102329.81
2022-10-11T01:03:42.092Z,102331.47
2022-10-11T01:06:10.241Z,102329.88
2022-10-11T01:08:39.751Z,102336.19
2022-10-11T01:11:13.505Z,102337.19
2022-10-11T01:13:53.412Z,102340.47
2022-10-11T01:16:31.071Z,102343.09
2022-10-11T01:19:07.213Z,102343.25
2022-10-11T01:21:43.454Z,102344.25
2022-10-11T01:24:23.962Z,102344.00
2022-10-11T01:27:29.330Z,102339.69
2022-10-11T01:30:06.636Z,102340.69
2022-10-11T01:32:44.450Z,102344.16
2022-10-11T01:35:21.773Z,102337.38
2022-10-11T01:37:57.409Z,102347.91
2022-10-11T01:40:29.268Z,102353.16
2022-10-11T01:42:58.753Z,102347.78
2022-10-11T01:45:27.641Z,102347.97
2022-10-11T01:48:08.761Z,102359.38
2022-10-11T01:50:40.850Z,102353.16
2022-10-11T01:53:41.265Z,102367.13
2022-10-11T01:56:22.940Z,102355.81
2022-10-11T01:59:07.163Z,102358.59
2022-10-11T02:01:49.606Z,102352.53
2022-10-11T02:04:29.090Z,102364.66
2022-10-11T02:07:00.587Z,102356.75
2022-10-11T02:09:34.996Z,102356.84
2022-10-11T02:12:07.920Z,102357.78
2022-10-11T02:14:40.500Z,102360.34
2022-10-11T02:17:11.891Z,102358.59
2022-10-11T02:19:45.986Z,102363.88
2022-10-11T02:22:21.466Z,102365.59
2022-10-11T02:24:53.402Z,102359.50
2022-10-11T02:27:25.703Z,102363.06
2022-10-11T02:29:56.612Z,102363.88
2022-10-11T02:32:26.632Z,102359.63
2022-10-11T02:34:59.168Z,102375.31
2022-10-11T02:37:31.606Z,102369.16
2022-10-11T02:40:05.180Z,102370.88
2022-10-11T02:42:39.918Z,102372.66
2022-10-11T02:45:14.158Z,102366.47
2022-10-11T02:47:43.689Z,102372.78
2022-10-11T02:50:13.802Z,102366.56
2022-10-11T02:52:42.056Z,102377.88
2022-10-11T02:55:11.560Z,102374.44
2022-10-11T02:57:39.710Z,102371.94
2022-10-11T03:00:09.318Z,102370.28
2022-10-11T03:02:37.571Z,102379.06
2022-10-11T03:05:06.306Z,102377.22
2022-10-11T03:07:35.864Z,102383.25
2022-10-11T03:10:04.061Z,102380.81
2022-10-11T03:12:32.132Z,102379.19
2022-10-11T03:15:00.191Z,102381.81
2022-10-11T03:17:36.627Z,102386.16
2022-10-11T03:20:06.155Z,102386.97
2022-10-11T03:22:35.574Z,102392.41
2022-10-11T03:25:04.912Z,102391.38
2022-10-11T03:27:33.401Z,102396.72
2022-10-11T03:30:01.749Z,102394.19
2022-10-11T03:32:30.387Z,102394.28
2022-10-11T03:34:58.617Z,102393.22
2022-10-11T03:37:26.973Z,102401.34
2022-10-11T03:39:56.491Z,102408.34
2022-10-11T03:42:24.504Z,102415.22
2022-10-11T03:44:52.563Z,102410.81
2022-10-11T03:47:20.616Z,102413.31
2022-10-11T03:49:48.966Z,102416.94
2022-10-11T03:52:16.982Z,102421.31
2022-10-11T03:54:45.003Z,102417.06
2022-10-11T03:57:14.413Z,102422.38
2022-10-11T03:59:42.421Z,102429.22
2022-10-11T04:02:11.274Z,102420.44
2022-10-11T04:04:39.429Z,102425.66
2022-10-11T04:07:07.533Z,102431.53
2022-10-11T04:09:35.527Z,102427.31
2022-10-11T04:12:03.834Z,102426.38
2022-10-11T04:14:33.193Z,102431.59
2022-10-11T04:17:01.204Z,102426.44
2022-10-11T04:19:29.575Z,102416.66
2022-10-11T04:21:57.676Z,102429.72
2022-10-11T04:24:25.650Z,102433.22
2022-10-11T04:26:53.745Z,102433.28
2022-10-11T04:29:21.924Z,102441.09
2022-10-11T04:31:51.837Z,102439.28
2022-10-11T04:34:20.291Z,102442.75
2022-10-11T04:36:50.012Z,102444.38
2022-10-11T04:39:18.322Z,102453.19
2022-10-11T04:41:46.407Z,102446.03
2022-10-11T04:44:14.564Z,102455.63
2022-10-11T04:46:42.580Z,102444.22
2022-10-11T04:49:15.162Z,102451.94
2022-10-11T04:51:43.290Z,102458.00
2022-10-11T04:54:11.350Z,102450.16
2022-10-11T04:56:39.386Z,102450.06
2022-10-11T04:59:07.456Z,102452.66
2022-10-11T05:01:35.834Z,102458.72
2022-10-11T05:04:03.908Z,102458.63
2022-10-11T05:06:33.444Z,102456.00
2022-10-11T05:09:01.771Z,102460.22
2022-10-11T05:11:29.873Z,102452.34
2022-10-11T05:13:57.897Z,102458.53
2022-10-11T05:16:26.048Z,102461.97
2022-10-11T05:18:54.097Z,102458.50
2022-10-11T05:21:23.799Z,102460.13
2022-10-11T05:23:55.276Z,102463.75
2022-10-11T05:26:24.237Z,102480.44
2022-10-11T05:28:52.371Z,102477.13
2022-10-11T05:31:20.871Z,102471.00
2022-10-11T05:33:48.951Z,102463.06
2022-10-11T05:36:17.022Z,102468.13
2022-10-11T05:38:45.530Z,102471.69
2022-10-11T05:41:16.627Z,102473.50
2022-10-11T05:43:45.973Z,102477.88
2022-10-11T05:46:14.461Z,102479.75
2022-10-11T05:48:42.560Z,102469.25
2022-10-11T05:51:12.456Z,102472.84
2022-10-11T05:53:40.928Z,102477.28
2022-10-11T05:56:20.903Z,102487.72
2022-10-11T05:58:49.362Z,102487.66
2022-10-11T06:01:21.859Z,102485.16
2022-10-11T06:03:50.238Z,102490.34
2022-10-11T06:06:18.407Z,102488.53
2022-10-11T06:08:46.813Z,102492.78
2022-10-11T06:11:16.404Z,102490.16
2022-10-11T06:13:45.885Z,102497.25
2022-10-11T06:16:14.531Z,102503.34
2022-10-11T06:18:42.667Z,102503.34
2022-10-11T06:21:10.716Z,102493.91
2022-10-11T06:23:38.836Z,102499.09
2022-10-11T06:26:09.775Z,102505.91
2022-10-11T06:28:38.314Z,102510.06
2022-10-11T06:31:08.229Z,102517.28
2022-10-11T06:33:36.823Z,102519.97
2022-10-11T06:36:08.334Z,102526.94
2022-10-11T06:38:39.814Z,102523.34
2022-10-11T06:41:12.143Z,102521.31
2022-10-11T06:43:40.209Z,102534.44
2022-10-11T06:46:09.903Z,102536.13
2022-10-11T06:48:40.909Z,102541.34
2022-10-11T06:51:11.659Z,102536.00
2022-10-11T06:53:39.998Z,102535.03
2022-10-11T06:56:10.688Z,102540.00
2022-10-11T06:58:39.467Z,102542.00
2022-10-11T07:01:11.489Z,102545.06
2022-10-11T07:03:39.874Z,102544.66
2022-10-11T07:06:10.615Z,102553.59
2022-10-11T07:08:39.627Z,102553.31
2022-10-11T07:11:09.552Z,102556.94
2022-10-11T07:13:38.299Z,102556.09
2022-10-11T07:16:08.962Z,102557.66
2022-10-11T07:18:39.252Z,102554.44
2022-10-11T07:21:09.535Z,102551.16
2022-10-11T07:23:37.986Z,102554.25
2022-10-11T07:26:07.546Z,102556.09
2022-10-11T07:28:37.135Z,102567.69
2022-10-11T07:31:06.465Z,102567.72
2022-10-11T07:33:34.958Z,102560.81
2022-10-11T07:36:05.357Z,102568.50
2022-10-11T07:38:34.021Z,102570.13
2022-10-11T07:41:06.455Z,102566.44
2022-10-11T07:43:34.572Z,102568.28
2022-10-11T07:46:04.866Z,102563.38
2022-10-11T07:48:34.109Z,102561.06
2022-10-11T07:51:08.904Z,102570.19
2022-10-11T07:53:41.360Z,102574.22
2022-10-11T07:56:10.550Z,102572.38
2022-10-11T07:58:38.597Z,102583.38
2022-10-11T08:01:07.434Z,102590.97
2022-10-11T08:03:35.859Z,102592.31
2022-10-11T08:06:07.382Z,102596.50
2022-10-11T08:08:36.141Z,102586.88
2022-10-11T08:11:04.587Z,102585.38
2022-10-11T08:13:33.394Z,102586.38
2022-10-11T08:16:02.021Z,102587.44
2022-10-11T08:18:30.257Z,102592.38
2022-10-11T08:20:58.440Z,102587.09
2022-10-11T08:23:27.918Z,102593.81
2022-10-11T08:25:58.785Z,102595.72
2022-10-11T08:28:26.936Z,102599.84
2022-10-11T08:30:55.978Z,102599.19
2022-10-11T08:33:26.003Z,102600.25
2022-10-11T08:35:55.138Z,102598.06
2022-10-11T08:38:23.202Z,102610.28
2022-10-11T08:40:55.276Z,102607.47
2022-10-11T08:43:37.082Z,102607.69
2022-10-11T08:46:07.639Z,102611.94
2022-10-11T08:48:39.269Z,102608.75
2022-10-11T08:51:15.160Z,102607.94
2022-10-11T08:53:52.800Z,102612.03
2022-10-11T08:56:26.888Z,102602.16
2022-10-11T08:58:58.831Z,102606.34
2022-10-11T09:01:29.408Z,102609.03
2022-10-11T09:04:00.011Z,102603.97
2022-10-11T09:06:40.632Z,102613.72
2022-10-11T09:09:24.600Z,102612.84
2022-10-11T09:12:06.645Z,102614.34
2022-10-11T09:14:54.518Z,102614.50
2022-10-11T09:17:33.821Z,102617.78
2022-10-11T09:20:22.285Z,102622.31
2022-10-11T09:22:59.097Z,102610.16
2022-10-11T09:25:33.183Z,102619.16
2022-10-11T09:28:11.861Z,102621.09
2022-10-11T09:30:47.702Z,102615.75
2022-10-11T09:33:20.553Z,102621.13
2022-10-11T09:35:49.097Z,102623.34
2022-10-11T09:38:29.039Z,102625.53
2022-10-11T09:41:07.398Z,102623.63
2022-10-11T09:43:37.174Z,102622.31
2022-10-11T09:46:05.390Z,102620.75
2022-10-11T09:48:40.974Z,102624.09
2022-10-11T09:51:18.230Z,102621.78
2022-10-11T09:53:57.555Z,102625.72
2022-10-11T09:56:27.897Z,102623.81
2022-10-11T09:59:29.169Z,102623.31
2022-10-11T10:02:24.695Z,102626.00
2022-10-11T10:04:57.474Z,102620.22
2022-10-11T10:07:26.133Z,102614.16
2022-10-11T10:09:54.266Z,102625.84
2022-10-11T10:12:25.084Z,102626.81
2022-10-11T10:15:04.763Z,102621.78
2022-10-11T10:17:33.348Z,102620.19
2022-10-11T10:20:01.710Z,102628.31
2022-10-11T10:22:32.194Z,102628.94
2022-10-11T10:25:03.248Z,102614.59
2022-10-11T10:27:33.071Z,102615.09
2022-10-11T10:30:14.511Z,102612.84
2022-10-11T10:32:49.858Z,102606.84
2022-10-11T10:35:29.905Z,102608.88
2022-10-11T10:38:07.901Z,102608.63
2022-10-11T10:40:42.321Z,102609.78
2022-10-11T10:43:16.598Z,102601.66
2022-10-11T10:46:10.039Z,102599.28
2022-10-11T10:49:19.155Z,102610.91
2022-10-11T10:51:43.096Z,102602.00
2022-10-11T10:54:18.780Z,102601.84
2022-10-11T10:56:52.119Z,102595.63
2022-10-11T10:59:39.384Z,102596.84
2022-10-11T11:02:38.932Z,102599.59
2022-10-11T11:05:18.936Z,102592.41
2022-10-11T11:07:55.155Z,102593.78
2022-10-11T11:10:27.894Z,102598.75
2022-10-11T11:13:02.691Z,102594.22
2022-10-11T11:15:39.362Z,102594.72
2022-10-11T11:18:26.903Z,102582.09
2022-10-11T11:21:18.276Z,102586.88
2022-10-11T11:23:53.571Z,102589.38
2022-10-11T11:26:32.666Z,102573.91
2022-10-11T11:29:10.600Z,102563.03
2022-10-11T11:31:55.193Z,102567.88
2022-10-11T11:34:28.197Z,102555.56
2022-10-11T11:36:59.284Z,102558.69
2022-10-11T11:39:31.687Z,102551.94
2022-10-11T11:42:05.424Z,102556.94
2022-10-11T11:44:36.975Z,102545.25
2022-10-11T11:47:10.773Z,102556.91
2022-10-11T11:49:45.963Z,102558.78
2022-10-11T11:52:21.075Z,102544.16
2022-10-11T11:54:53.762Z,102550.09
2022-10-11T11:57:31.952Z,102545.00
2022-10-11T12:00:05.060Z,102537.38
2022-10-11T12:02:49.078Z,102539.78
2022-10-11T12:05:21.731Z,102541.34
2022-10-11T12:07:51.443Z,102535.13
2022-10-11T12:10:27.887Z,102543.06
2022-10-11T12:13:19.076Z,102535.28
2022-10-11T12:16:01.289Z,102530.94
2022-10-11T12:18:31.365Z,102543.59
2022-10-11T12:21:07.311Z,102526.53
2022-10-11T12:23:47.245Z,102524.69
2022-10-11T12:26:43.447Z,102529.09
2022-10-11T12:29:56.059Z,102517.91
2022-10-11T12:32:52.560Z,102515.38
2022-10-11T12:36:08.261Z,102509.94
2022-10-11T12:38:41.933Z,102504.19
2022-10-11T12:41:39.841Z,102511.41
2022-10-11T12:44:14.634Z,102517.25
2022-10-11T12:47:01.634Z,102503.53
2022-10-11T12:49:44.515Z,102505.38
2022-10-11T12:52:23.965Z,102507.28
2022-10-11T12:55:08.915Z,102513.00
2022-10-11T12:58:13.468Z,102514.50
2022-10-11T13:01:12.395Z,102502.69
2022-10-11T13:03:42.204Z,102500.50
2022-10-11T13:06:17.471Z,102502.13
2022-10-11T13:08:50.464Z,102502.53
2022-10-11T13:11:22.808Z,102500.78
2022-10-11T13:13:55.152Z,102496.16
2022-10-11T13:16:26.277Z,102498.50
2022-10-11T13:18:58.568Z,102507.31
2022-10-11T13:21:33.098Z,102497.75
2022-10-11T13:24:02.893Z,102501.72
2022-10-11T13:26:33.225Z,102494.53
2022-10-11T13:29:01.566Z,102496.44
2022-10-11T13:31:29.792Z,102491.88
2022-10-11T13:34:00.202Z,102489.78
2022-10-11T13:36:28.836Z,102492.13
2022-10-11T13:38:59.629Z,102488.97
2022-10-11T13:41:30.401Z,102491.19
2022-10-11T13:44:01.398Z,102486.59
2022-10-11T13:46:32.269Z,102483.22
2022-10-11T13:49:02.274Z,102482.88
2022-10-11T13:51:33.781Z,102480.78
2022-10-11T13:54:04.020Z,102484.63
2022-10-11T13:56:36.724Z,102479.50
2022-10-11T13:59:06.172Z,102478.44
2022-10-11T14:01:40.622Z,102480.59
2022-10-11T14:04:10.973Z,102476.00
2022-10-11T14:06:45.370Z,102486.53
2022-10-11T14:09:21.388Z,102482.59
2022-10-11T14:11:52.970Z,102483.00
2022-10-11T14:14:43.352Z,102480.66
2022-10-11T14:17:17.154Z,102474.25
2022-10-11T14:19:46.152Z,102472.91
2022-10-11T14:22:16.143Z,102478.94
2022-10-11T14:24:47.519Z,102466.81
2022-10-11T14:27:18.503Z,102467.31
2022-10-11T14:30:00.526Z,102460.50
2022-10-11T14:32:36.432Z,102474.69
2022-10-11T14:35:05.123Z,102473.53
2022-10-11T14:37:33.177Z,102468.50
2022-10-11T14:40:01.293Z,102473.41
2022-10-11T14:42:29.370Z,102467.00
2022-10-11T14:44:58.800Z,102474.13
2022-10-11T14:47:26.760Z,102473.75
2022-10-11T14:49:54.770Z,102472.34
2022-10-11T14:52:22.860Z,102476.13
2022-10-11T14:54:50.858Z,102471.03
2022-10-11T14:57:18.861Z,102469.94
2022-10-11T14:59:46.900Z,102471.44
2022-10-11T15:02:16.300Z,102470.25
2022-10-11T15:04:44.303Z,102465.00
2022-10-11T15:07:13.966Z,102464.75
2022-10-11T15:09:41.999Z,102460.44
2022-10-11T15:12:12.217Z,102459.03
2022-10-11T15:14:40.291Z,102455.78
2022-10-11T15:17:08.305Z,102460.63
2022-10-11T15:19:37.730Z,102464.78
2022-10-11T15:22:06.089Z,102461.38
2022-10-11T15:24:34.357Z,102462.34
2022-10-11T15:27:02.761Z,102463.47
2022-10-11T15:29:30.772Z,102460.88
2022-10-11T15:31:58.769Z,102454.63
2022-10-11T15:34:26.905Z,102457.16
2022-10-11T15:36:56.322Z,102460.03
2022-10-11T15:39:28.014Z,102452.44
2022-10-11T15:41:56.192Z,102448.25
2022-10-11T15:44:24.336Z,102449.38
2022-10-11T15:46:52.391Z,102453.44
2022-10-11T15:49:20.629Z,102444.91
2022-10-11T15:51:48.679Z,102442.63
2022-10-11T15:54:18.122Z,102442.13
2022-10-11T15:56:46.100Z,102436.69
2022-10-11T15:59:14.213Z,102440.38
2022-10-11T16:01:42.287Z,102438.44
2022-10-11T16:04:10.894Z,102430.69
2022-10-11T16:06:38.996Z,102429.50
2022-10-11T16:09:07.095Z,102430.84
2022-10-11T16:11:36.473Z,102431.53
2022-10-11T16:14:04.617Z,102437.09
2022-10-11T16:16:32.607Z,102435.66
2022-10-11T16:19:00.652Z,102435.72
2022-10-11T16:21:28.905Z,102435.81
2022-10-11T16:23:58.747Z,102443.19
2022-10-11T16:26:27.114Z,102440.13
2022-10-11T16:28:57.764Z,102436.03
2022-10-11T16:31:25.881Z,102429.13
2022-10-11T16:33:54.070Z,102442.59
2022-10-11T16:36:37.810Z,102441.84
2022-10-11T16:39:08.872Z,102437.00
2022-10-11T16:41:37.208Z,102450.00
2022-10-11T16:44:06.950Z,102450.47
2022-10-11T16:46:35.623Z,102448.75
2022-10-11T16:49:03.965Z,102447.66
2022-10-11T16:51:32.568Z,102447.03
2022-10-11T16:54:00.608Z,102451.03
2022-10-11T16:56:28.827Z,102448.84
2022-10-11T16:58:57.099Z,102449.00
2022-10-11T17:01:29.737Z,102450.66
2022-10-11T17:03:58.269Z,102457.09
2022-10-11T17:06:26.360Z,102464.25
2022-10-11T17:08:55.429Z,102454.41
2022-10-11T17:11:23.579Z,102453.72
2022-10-11T17:13:53.474Z,102457.56
2022-10-11T17:16:22.681Z,102456.44
2022-10-11T17:18:52.658Z,102448.97
2022-10-11T17:21:22.496Z,102453.66
2022-10-11T17:23:51.133Z,102453.75
2022-10-11T17:26:21.571Z,102452.31
2022-10-11T17:28:49.911Z,102453.53
2022-10-11T17:31:18.592Z,102455.25
2022-10-11T17:33:47.074Z,102454.81
2022-10-11T17:36:21.779Z,102462.41
2022-10-11T17:38:50.825Z,102464.13
2022-10-11T17:41:21.479Z,102468.69
2022-10-11T17:43:49.652Z,102464.81
2022-10-11T17:46:18.842Z,102460.78
2022-10-11T17:48:47.171Z,102472.59
2022-10-11T17:51:19.910Z,102469.44
2022-10-11T17:53:50.856Z,102467.22
2022-10-11T17:56:25.415Z,102474.66
2022-10-11T17:59:00.245Z,102474.06
2022-10-11T18:01:30.225Z,102473.38
2022-10-11T18:03:59.962Z,102470.97
2022-10-11T18:06:32.818Z,102470.72
2022-10-11T18:09:04.857Z,102468.50
2022-10-11T18:11:33.453Z,102463.44
2022-10-11T18:14:01.962Z,102469.75
2022-10-11T18:16:31.351Z,102468.25
2022-10-11T18:19:00.310Z,102468.47
2022-10-11T18:21:34.402Z,102472.09
2022-10-11T18:24:06.151Z,102470.56
2022-10-11T18:26:34.709Z,102472.53
2022-10-11T18:29:03.092Z,102471.06
2022-10-11T18:31:33.793Z,102472.66
2022-10-11T18:34:02.202Z,102473.63
2022-10-11T18:36:32.797Z,102472.91
2022-10-11T18:39:07.277Z,102473.28
2022-10-11T18:41:36.417Z,102475.78
2022-10-11T18:44:06.649Z,102470.88
2022-10-11T18:46:35.451Z,102467.88
2022-10-11T18:49:03.766Z,102470.50
2022-10-11T18:51:34.882Z,102469.75
2022-10-11T18:54:03.537Z,102469.22
2022-10-11T18:56:36.537Z,102461.88
2022-10-11T18:59:05.946Z,102467.19
2022-10-11T19:01:38.163Z,102465.59
2022-10-11T19:04:07.768Z,102460.34
2022-10-11T19:06:39.510Z,102463.75
2022-10-11T19:09:10.215Z,102465.06
2022-10-11T19:11:38.298Z,102458.09
2022-10-11T19:14:08.442Z,102461.97
2022-10-11T19:16:38.697Z,102455.00
2022-10-11T19:19:07.713Z,102457.81
2022-10-11T19:21:37.303Z,102467.47
2022-10-11T19:24:05.713Z,102457.50
2022-10-11T19:26:35.498Z,102460.94
2022-10-11T19:29:05.847Z,102460.94
2022-10-11T19:31:36.275Z,102465.31
2022-10-11T19:34:04.511Z,102456.66
2022-10-11T19:36:36.775Z,102455.09
2022-10-11T19:39:07.476Z,102452.47
2022-10-11T19:41:35.520Z,102452.56
2022-10-11T19:44:03.686Z,102458.84
2022-10-11T19:46:50.293Z,102450.00
2022-10-11T19:49:21.609Z,102453.94
2022-10-11T19:51:49.869Z,102461.00
2022-10-11T19:54:19.882Z,102454.72
2022-10-11T19:56:48.060Z,102455.53
2022-10-11T19:59:16.488Z,102447.66
2022-10-11T20:01:51.088Z,102457.41
2022-10-11T20:04:51.206Z,102451.63
2022-10-11T20:07:08.890Z,102457.59
2022-10-11T20:09:38.444Z,102450.75
2022-10-11T20:12:06.755Z,102448.34
2022-10-11T20:14:34.783Z,102446.19
2022-10-11T20:17:02.821Z,102445.97
2022-10-11T20:19:31.745Z,102448.72
2022-10-11T20:22:00.480Z,102443.56
2022-10-11T20:24:32.806Z,102448.28
2022-10-11T20:27:04.655Z,102446.75
2022-10-11T20:29:32.848Z,102449.38
2022-10-11T20:32:00.938Z,102458.31
2022-10-11T20:34:29.554Z,102447.88
2022-10-11T20:36:57.715Z,102451.72
2022-10-11T20:39:26.029Z,102451.66
2022-10-11T20:41:54.102Z,102455.75
2022-10-11T20:44:23.659Z,102449.44
2022-10-11T20:46:51.956Z,102450.22
2022-10-11T20:49:20.713Z,102447.16
2022-10-11T20:51:48.970Z,102454.84
2022-10-11T20:54:19.299Z,102455.25
2022-10-11T20:56:47.476Z,102458.81
2022-10-11T20:59:15.462Z,102460.53
2022-10-11T21:01:45.160Z,102456.09
2022-10-11T21:04:19.673Z,102451.78
2022-10-11T21:06:48.904Z,102455.63
2022-10-11T21:09:17.721Z,102452.84
2022-10-11T21:11:46.159Z,102458.13
2022-10-11T21:14:15.058Z,102451.91
2022-10-11T21:16:44.426Z,102454.84
2022-10-11T21:19:16.117Z,102464.63
2022-10-11T21:21:50.954Z,102464.19
2022-10-11T21:24:21.913Z,102463.56
2022-10-11T21:26:50.301Z,102458.06
2022-10-11T21:29:18.792Z,102462.63
2022-10-11T21:31:48.156Z,102456.69
2022-10-11T21:34:18.522Z,102457.47
2022-10-11T21:36:46.605Z,102463.66
2022-10-11T21:39:14.541Z,102459.38
2022-10-11T21:41:43.085Z,102456.25
2022-10-11T21:44:13.609Z,102449.13
2022-10-11T21:47:05.639Z,102454.38
2022-10-11T21:49:31.421Z,102455.16
2022-10-11T21:51:59.677Z,102451.16
2022-10-11T21:54:30.743Z,102462.69
2022-10-11T21:56:59.178Z,102456.69
2022-10-11T21:59:27.261Z,102455.75
2022-10-11T22:02:00.740Z,102460.16
2022-10-11T22:04:31.252Z,102454.81
2022-10-11T22:06:59.372Z,102459.50
2022-10-11T22:09:29.989Z,102458.94
2022-10-11T22:11:58.120Z,102449.28
2022-10-11T22:14:26.214Z,102448.53
2022-10-11T22:16:54.266Z,102452.06
2022-10-11T22:19:23.296Z,102454.75
2022-10-11T22:21:53.035Z,102448.56
2022-10-11T22:24:21.202Z,102449.03
2022-10-11T22:26:49.424Z,102460.22
2022-10-11T22:29:17.774Z,102450.00
2022-10-11T22:31:48.326Z,102450.59
2022-10-11T22:34:16.392Z,102462.81
2022-10-11T22:36:44.490Z,102447.44
2022-10-11T22:39:14.071Z,102448.50
2022-10-11T22:41:42.154Z,102447.53
2022-10-11T22:44:10.135Z,102454.41
2022-10-11T22:46:38.260Z,102443.13
2022-10-11T22:49:06.317Z,102452.84
2022-10-11T22:51:34.733Z,102446.00
2022-10-11T22:54:02.782Z,102446.06
2022-10-11T22:56:32.230Z,102440.78
2022-10-11T22:59:00.569Z,102443.47
2022-10-11T23:01:28.657Z,102445.41
2022-10-11T23:03:56.761Z,102439.69
2022-10-11T23:06:24.863Z,102441.28
2022-10-11T23:08:52.913Z,102438.78
2022-10-11T23:11:20.949Z,102440.19
2022-10-11T23:13:50.547Z,102445.63
2022-10-11T23:16:18.793Z,102441.94
2022-10-11T23:18:46.983Z,102443.09
2022-10-11T23:21:15.058Z,102439.78
2022-10-11T23:23:43.026Z,102443.34
2022-10-11T23:26:16.537Z,102442.63
2022-10-11T23:28:45.663Z,102449.69
2022-10-11T23:31:17.670Z,102454.03
2022-10-11T23:33:46.274Z,102454.16
2022-10-11T23:36:15.863Z,102448.81
2022-10-11T23:38:44.191Z,102451.38
2022-10-11T23:41:12.435Z,102446.31
2022-10-11T23:43:40.521Z,102444.56
2022-10-11T23:46:09.306Z,102440.31
2022-10-11T23:48:38.679Z,102444.66
2022-10-11T23:51:07.258Z,102438.69
2022-10-11T23:53:38.218Z,102437.78
2022-10-11T23:56:07.089Z,102439.38
2022-10-11T23:58:35.336Z,102436.00
